Time;durP1;ratioP1;P1;durP2;ratioP2;P2;SDS_P1;SDS_P2;PMS_P1;PMS_P2;Temp;Humidity;BMP_temperature;BMP_pressure;BME280_temperature;BME280_humidity;BME280_pressure;Samples;Min_cycle;Max_cycle;Signal;HPM_P1;HPM_P2
2024/03/15 00:00:58;;;;;;;7.60;5.97;;;12.20;99.90;;;;;;5058638;28;20542;-58
2024/03/15 00:03:26;;;;;;;6.00;5.20;;;12.10;99.90;;;;;;5059820;28;20460;-58
2024/03/15 00:05:53;;;;;;;5.70;5.10;;;12.10;99.90;;;;;;5059950;28;20468;-58
2024/03/15 00:08:20;;;;;;;7.93;5.20;;;12.10;1.00;;;;;;5056284;28;20855;-58
2024/03/15 00:10:48;;;;;;;6.07;4.77;;;12.10;99.90;;;;;;5055597;28;20552;-58
2024/03/15 00:13:15;;;;;;;5.37;4.87;;;12.00;1.00;;;;;;5059399;28;20435;-58
2024/03/15 00:15:42;;;;;;;6.17;4.93;;;12.00;1.00;;;;;;5059784;28;20461;-58
2024/03/15 00:18:09;;;;;;;9.70;6.03;;;12.00;1.00;;;;;;5059415;28;20503;-59
2024/03/15 00:20:37;;;;;;;6.33;5.10;;;11.90;1.00;;;;;;5059069;28;20461;-58
2024/03/15 00:23:06;;;;;;;6.70;4.87;;;11.90;1.00;;;;;;5056764;28;20871;-59
2024/03/15 00:25:33;;;;;;;7.50;6.23;;;11.90;1.00;;;;;;5059765;28;20461;-58
2024/03/15 00:28:02;;;;;;;6.53;5.10;;;11.90;1.00;;;;;;5059282;28;20504;-58
2024/03/15 00:30:29;;;;;;;7.70;5.97;;;11.90;1.00;;;;;;5059305;28;20432;-58
2024/03/15 00:32:57;;;;;;;6.03;5.43;;;11.80;1.00;;;;;;5055763;28;20835;-59
2024/03/15 00:35:26;;;;;;;8.13;4.97;;;11.90;1.00;;;;;;5059037;28;20457;-58
2024/03/15 00:37:53;;;;;;;5.60;5.10;;;11.90;1.00;;;;;;5059437;28;20456;-58
2024/03/15 00:40:21;;;;;;;8.03;5.50;;;11.90;1.00;;;;;;5059440;28;20863;-58
2024/03/15 00:42:48;;;;;;;5.53;4.70;;;11.90;1.00;;;;;;5058786;28;20530;-59
2024/03/15 00:45:15;;;;;;;10.33;4.60;;;11.80;1.00;;;;;;5059073;28;20507;-58
2024/03/15 00:47:42;;;;;;;7.90;5.10;;;11.80;1.00;;;;;;5058852;28;20464;-58
2024/03/15 00:50:09;;;;;;;6.23;4.77;;;11.80;1.00;;;;;;5059219;28;20453;-58
2024/03/15 00:52:38;;;;;;;7.80;5.00;;;11.80;1.00;;;;;;5059082;28;20837;-60
2024/03/15 00:55:06;;;;;;;6.43;4.60;;;11.80;1.00;;;;;;5040680;28;20458;-58
2024/03/15 00:57:33;;;;;;;5.20;4.70;;;11.80;1.00;;;;;;5059263;28;20462;-58
2024/03/15 01:00:00;;;;;;;5.40;4.70;;;11.70;1.00;;;;;;5058567;28;20457;-58
2024/03/15 01:02:28;;;;;;;6.10;5.50;;;11.60;1.00;;;;;;5058896;28;20512;-58
2024/03/15 01:04:55;;;;;;;7.90;5.30;;;11.70;1.00;;;;;;5059357;28;20555;-58
2024/03/15 01:07:22;;;;;;;8.00;5.13;;;11.70;1.00;;;;;;5059201;28;20939;-58
2024/03/15 01:09:49;;;;;;;13.70;6.50;;;11.60;1.00;;;;;;5058214;28;20541;-58
2024/03/15 01:12:17;;;;;;;6.70;5.20;;;11.50;1.00;;;;;;5060792;28;20460;-58
2024/03/15 01:14:45;;;;;;;7.00;5.20;;;11.50;1.00;;;;;;5063142;28;20453;-58
2024/03/15 01:17:14;;;;;;;7.23;5.90;;;11.40;1.00;;;;;;5063017;28;20560;-58
2024/03/15 01:19:45;;;;;;;7.67;5.10;;;11.40;1.00;;;;;;5063400;28;20796;-58
2024/03/15 01:22:12;;;;;;;8.63;5.63;;;11.30;1.00;;;;;;5063392;28;20489;-58
2024/03/15 01:24:39;;;;;;;9.00;4.93;;;11.30;14.30;;;;;;5062405;28;20464;-58
2024/03/15 01:27:06;;;;;;;6.00;4.83;;;11.20;8.60;;;;;;5062805;28;20812;-58
2024/03/15 01:29:33;;;;;;;6.83;5.50;;;11.10;41.50;;;;;;5062835;28;20492;-58
2024/03/15 01:32:01;;;;;;;5.90;5.17;;;11.10;71.20;;;;;;5062865;28;20836;-58
2024/03/15 01:34:28;;;;;;;6.10;5.50;;;11.00;97.40;;;;;;5062462;28;20493;-58
2024/03/15 01:36:55;;;;;;;7.73;5.33;;;11.00;99.90;;;;;;5062551;28;20464;-59
2024/03/15 01:39:24;;;;;;;11.97;5.00;;;10.90;99.90;;;;;;5062893;28;20453;-58
2024/03/15 01:41:51;;;;;;;9.10;5.87;;;10.90;99.90;;;;;;5062965;28;20539;-58
2024/03/15 01:44:19;;;;;;;5.90;5.20;;;10.90;99.90;;;;;;5062569;28;20453;-59
2024/03/15 01:46:46;;;;;;;6.13;5.03;;;10.80;99.90;;;;;;5062190;28;20497;-59
2024/03/15 01:49:13;;;;;;;6.40;4.60;;;10.80;99.90;;;;;;5062302;28;20457;-58
2024/03/15 01:51:41;;;;;;;8.40;5.40;;;10.80;99.90;;;;;;5062601;28;20518;-58
2024/03/15 01:54:10;;;;;;;6.93;5.60;;;10.90;99.90;;;;;;5062647;28;20492;-59
2024/03/15 01:56:37;;;;;;;7.10;5.13;;;10.90;99.90;;;;;;5062961;28;20495;-58
2024/03/15 01:59:05;;;;;;;5.80;4.93;;;10.90;99.90;;;;;;5062074;28;20490;-57
2024/03/15 02:01:32;;;;;;;6.23;4.80;;;10.90;99.90;;;;;;5062217;28;20489;-58
2024/03/15 02:03:59;;;;;;;6.83;5.60;;;10.90;99.90;;;;;;5062152;28;20548;-58
2024/03/15 02:06:27;;;;;;;6.13;5.30;;;10.90;99.90;;;;;;5062586;28;20461;-58
2024/03/15 02:08:55;;;;;;;6.33;5.33;;;10.90;99.90;;;;;;5062408;28;20961;-58
2024/03/15 02:11:23;;;;;;;5.43;4.90;;;10.80;99.90;;;;;;5062197;28;20453;-58
2024/03/15 02:13:52;;;;;;;6.33;5.10;;;10.80;99.90;;;;;;5061620;28;20511;-58
2024/03/15 02:16:20;;;;;;;6.97;5.00;;;10.80;99.90;;;;;;5062555;28;20883;-58
2024/03/15 02:18:49;;;;;;;6.30;3.97;;;10.70;99.90;;;;;;5062114;28;20759;-59
2024/03/15 02:21:17;;;;;;;8.17;5.27;;;10.60;99.90;;;;;;5062265;28;20461;-58
2024/03/15 02:23:46;;;;;;;7.10;5.30;;;10.70;99.90;;;;;;5061091;28;20906;-58
2024/03/15 02:26:13;;;;;;;7.57;4.93;;;10.70;99.90;;;;;;5061743;28;20808;-56
2024/03/15 02:28:41;;;;;;;6.23;5.10;;;10.70;99.90;;;;;;5061693;28;20544;-59
2024/03/15 02:31:08;;;;;;;5.93;5.07;;;10.70;99.90;;;;;;5061837;28;20465;-59
2024/03/15 02:33:36;;;;;;;6.50;5.13;;;10.70;99.90;;;;;;5061444;28;20461;-58
2024/03/15 02:36:03;;;;;;;5.90;5.20;;;10.70;99.90;;;;;;5061923;28;20457;-58
2024/03/15 02:38:33;;;;;;;6.70;5.40;;;10.60;99.90;;;;;;5062002;28;20457;-58
2024/03/15 02:41:01;;;;;;;5.83;5.00;;;10.50;99.90;;;;;;5061474;28;20461;-59
2024/03/15 02:43:28;;;;;;;7.77;5.50;;;10.50;99.90;;;;;;5061476;28;20496;-58
2024/03/15 02:45:55;;;;;;;5.73;5.13;;;10.30;99.90;;;;;;5061627;28;20511;-58
2024/03/15 02:48:23;;;;;;;6.77;5.03;;;10.40;1.00;;;;;;5061796;28;21051;-58
2024/03/15 02:50:50;;;;;;;5.60;5.00;;;10.30;1.00;;;;;;5061363;28;20457;-57
2024/03/15 02:53:18;;;;;;;5.27;4.77;;;10.20;99.90;;;;;;5061270;28;20464;-58
2024/03/15 02:55:46;;;;;;;6.33;5.33;;;10.10;1.00;;;;;;5061621;28;20886;-58
2024/03/15 02:58:13;;;;;;;9.73;5.90;;;10.20;1.00;;;;;;5061311;28;20500;-58
2024/03/15 03:00:40;;;;;;;8.70;5.77;;;10.20;1.00;;;;;;5060830;28;20453;-58
2024/03/15 03:03:10;;;;;;;7.07;5.27;;;10.20;1.00;;;;;;5061268;28;20493;-58
2024/03/15 03:05:38;;;;;;;7.60;5.77;;;10.20;1.00;;;;;;5061806;28;20485;-58
2024/03/15 03:08:06;;;;;;;6.13;5.20;;;10.00;1.00;;;;;;5061525;28;20462;-58
2024/03/15 03:10:33;;;;;;;6.03;5.43;;;10.00;1.00;;;;;;5060747;28;20461;-58
2024/03/15 03:13:01;;;;;;;6.70;4.80;;;9.90;1.00;;;;;;5061090;28;20453;-58
2024/03/15 03:15:29;;;;;;;7.80;5.10;;;9.90;1.00;;;;;;5057379;28;20457;-58
2024/03/15 03:17:56;;;;;;;6.67;5.93;;;9.90;1.00;;;;;;5040978;28;20467;-58
2024/03/15 03:20:24;;;;;;;6.13;5.53;;;10.00;1.00;;;;;;5040995;28;20468;-58
2024/03/15 03:22:52;;;;;;;8.40;6.10;;;10.00;1.00;;;;;;5040449;28;20584;-58
2024/03/15 03:25:19;;;;;;;9.30;5.83;;;9.90;1.00;;;;;;5040802;28;20465;-58
2024/03/15 03:27:46;;;;;;;9.87;5.60;;;10.00;1.00;;;;;;5040770;28;20829;-59
2024/03/15 03:30:14;;;;;;;7.30;5.37;;;10.00;1.00;;;;;;5040749;28;20494;-58
2024/03/15 03:32:41;;;;;;;6.17;5.30;;;10.00;1.00;;;;;;5040566;28;20489;-59
2024/03/15 03:35:09;;;;;;;6.63;5.13;;;10.00;1.00;;;;;;5040780;28;20461;-58
2024/03/15 03:37:37;;;;;;;8.10;5.07;;;10.00;1.00;;;;;;5040772;28;20931;-58
2024/03/15 03:40:06;;;;;;;7.47;6.13;;;10.00;1.00;;;;;;5040403;28;20465;-58
2024/03/15 03:42:34;;;;;;;6.60;5.70;;;10.00;1.00;;;;;;5040337;28;20498;-58
2024/03/15 03:45:01;;;;;;;5.90;5.30;;;10.00;1.00;;;;;;5040227;28;20458;-58
2024/03/15 03:47:28;;;;;;;9.57;5.67;;;9.90;1.00;;;;;;5040417;28;20462;-58
2024/03/15 03:49:55;;;;;;;9.07;6.03;;;9.90;1.00;;;;;;5039953;28;20878;-58
2024/03/15 03:52:22;;;;;;;7.20;5.07;;;9.90;1.00;;;;;;5040108;28;20454;-56
2024/03/15 03:54:50;;;;;;;7.70;5.90;;;9.80;1.00;;;;;;5039505;28;20541;-58
2024/03/15 03:57:21;;;;;;;11.83;5.93;;;9.80;1.00;;;;;;5039150;28;20462;-58
2024/03/15 03:59:49;;;;;;;7.20;5.97;;;9.90;1.00;;;;;;5039637;28;20450;-58
2024/03/15 04:02:16;;;;;;;7.77;5.30;;;9.90;1.00;;;;;;5057044;28;20812;-58
2024/03/15 04:04:45;;;;;;;8.10;6.40;;;10.00;1.00;;;;;;5059121;28;20493;-58
2024/03/15 04:07:13;;;;;;;6.47;4.93;;;10.10;1.00;;;;;;5059599;28;20466;-59
2024/03/15 04:09:40;;;;;;;6.30;5.20;;;10.20;1.00;;;;;;5059876;28;20553;-58
2024/03/15 04:12:07;;;;;;;7.40;5.57;;;10.20;1.00;;;;;;5059831;28;20453;-58
2024/03/15 04:14:35;;;;;;;9.47;5.80;;;10.20;1.00;;;;;;5058507;28;20453;-58
2024/03/15 04:17:02;;;;;;;7.77;5.23;;;10.30;1.00;;;;;;5057899;28;20467;-58
2024/03/15 04:19:29;;;;;;;8.83;5.70;;;10.30;1.00;;;;;;5058157;28;20496;-59
2024/03/15 04:21:58;;;;;;;6.30;5.30;;;10.40;1.00;;;;;;5057959;28;20504;-58
2024/03/15 04:24:25;;;;;;;7.10;5.10;;;10.40;1.00;;;;;;5058411;28;20526;-59
2024/03/15 04:26:54;;;;;;;7.90;5.90;;;10.50;1.00;;;;;;5056838;28;20785;-58
2024/03/15 04:29:24;;;;;;;6.07;4.60;;;10.60;1.00;;;;;;5058010;28;20454;-58
2024/03/15 04:31:51;;;;;;;7.20;6.00;;;10.60;1.00;;;;;;5058376;28;20503;-57
2024/03/15 04:34:19;;;;;;;6.37;5.07;;;10.70;99.90;;;;;;5059258;28;20896;-58
2024/03/15 04:36:47;;;;;;;6.17;5.27;;;10.70;99.90;;;;;;5058951;28;20470;-58
2024/03/15 04:39:15;;;;;;;7.50;5.17;;;10.70;99.90;;;;;;5059824;28;20947;-57
2024/03/15 04:41:42;;;;;;;7.40;5.50;;;10.70;99.90;;;;;;5058900;28;20811;-58
2024/03/15 04:44:10;;;;;;;7.30;5.40;;;10.80;99.90;;;;;;5058074;28;20496;-57
2024/03/15 04:46:37;;;;;;;7.80;5.20;;;10.80;99.90;;;;;;5057220;28;20464;-59
2024/03/15 04:49:04;;;;;;;5.97;4.80;;;10.80;99.90;;;;;;5057957;28;20905;-58
2024/03/15 04:51:31;;;;;;;9.07;5.03;;;10.90;99.90;;;;;;5057848;28;20959;-58
2024/03/15 04:53:59;;;;;;;7.00;4.73;;;10.90;99.90;;;;;;5058110;28;20493;-58
2024/03/15 04:56:26;;;;;;;7.17;5.10;;;10.90;99.90;;;;;;5057872;28;20488;-58
2024/03/15 04:58:53;;;;;;;5.80;4.90;;;11.00;99.90;;;;;;5059020;28;20457;-58
2024/03/15 05:01:20;;;;;;;5.93;5.10;;;11.00;99.90;;;;;;5059268;28;20832;-59
2024/03/15 05:03:48;;;;;;;6.53;4.80;;;11.00;99.90;;;;;;5059408;28;20596;-58
2024/03/15 05:06:15;;;;;;;6.90;4.90;;;11.00;99.90;;;;;;5059335;28;20453;-58
2024/03/15 05:08:42;;;;;;;7.30;4.97;;;11.10;99.90;;;;;;5059387;28;20514;-58
2024/03/15 05:11:10;;;;;;;8.27;5.20;;;11.10;99.90;;;;;;5059169;28;20457;-59
2024/03/15 05:13:38;;;;;;;9.70;5.00;;;11.10;99.90;;;;;;5059520;28;20465;-58
2024/03/15 05:16:06;;;;;;;5.90;4.40;;;11.20;90.80;;;;;;5059615;28;20511;-59
2024/03/15 05:18:35;;;;;;;10.70;4.63;;;11.40;87.00;;;;;;5059093;28;20551;-58
2024/03/15 05:21:02;;;;;;;7.10;4.63;;;11.40;25.30;;;;;;5059163;28;20423;-58
2024/03/15 05:23:29;;;;;;;8.43;4.77;;;11.50;99.90;;;;;;5059273;28;20500;-58
2024/03/15 05:25:57;;;;;;;6.43;4.57;;;11.60;99.90;;;;;;5059194;28;20511;-59
2024/03/15 05:28:25;;;;;;;6.40;4.73;;;11.60;99.90;;;;;;5058537;28;20485;-59
2024/03/15 05:30:52;;;;;;;7.40;4.20;;;11.70;99.90;;;;;;5058967;28;20716;-58
2024/03/15 05:33:20;;;;;;;8.50;5.53;;;11.80;99.90;;;;;;5058830;28;20459;-58
2024/03/15 05:35:47;;;;;;;13.00;5.07;;;11.70;97.40;;;;;;5059136;28;20461;-59
2024/03/15 05:38:14;;;;;;;8.33;5.07;;;11.80;40.40;;;;;;5058837;28;20501;-59
2024/03/15 05:40:41;;;;;;;6.23;5.00;;;11.80;99.90;;;;;;5059124;28;20902;-59
2024/03/15 05:43:09;;;;;;;7.70;4.83;;;11.80;99.90;;;;;;5058647;28;20525;-62
2024/03/15 05:45:36;;;;;;;5.80;5.07;;;11.80;99.90;;;;;;5059091;28;20458;-61
2024/03/15 05:48:04;;;;;;;8.90;5.50;;;11.70;99.90;;;;;;5058660;28;20461;-62
2024/03/15 05:50:32;;;;;;;6.50;4.57;;;11.70;99.90;;;;;;5058803;28;20458;-61
2024/03/15 05:53:00;;;;;;;9.70;5.30;;;11.70;99.90;;;;;;5058791;28;20465;-60
2024/03/15 05:55:28;;;;;;;5.90;4.50;;;11.60;99.90;;;;;;5058153;28;20551;-62
2024/03/15 05:57:55;;;;;;;9.33;5.20;;;11.50;1.00;;;;;;5058224;28;20461;-63
2024/03/15 06:00:23;;;;;;;7.87;4.83;;;11.50;1.00;;;;;;5060702;28;20467;-63
2024/03/15 06:02:51;;;;;;;6.07;5.47;;;11.40;1.00;;;;;;5060738;28;20488;-63
2024/03/15 06:05:19;;;;;;;7.73;6.20;;;11.40;1.00;;;;;;5061604;28;20458;-64
2024/03/15 06:07:46;;;;;;;9.90;5.17;;;11.50;1.00;;;;;;5061866;28;20556;-64
2024/03/15 06:10:14;;;;;;;6.83;5.43;;;11.50;1.00;;;;;;5061645;28;20453;-65
2024/03/15 06:12:41;;;;;;;8.93;5.20;;;11.50;1.00;;;;;;5061222;28;20457;-64
2024/03/15 06:15:09;;;;;;;8.03;5.20;;;11.50;1.00;;;;;;5061777;28;20453;-64
2024/03/15 06:17:36;;;;;;;11.20;5.60;;;11.40;1.00;;;;;;5061813;28;20468;-65
2024/03/15 06:20:04;;;;;;;6.83;5.23;;;11.50;1.00;;;;;;5062108;28;20457;-65
2024/03/15 06:22:31;;;;;;;7.00;5.00;;;11.50;1.00;;;;;;5061573;28;20515;-64
2024/03/15 06:24:59;;;;;;;6.90;5.43;;;11.50;1.00;;;;;;5061538;28;20944;-64
2024/03/15 06:27:26;;;;;;;6.90;4.97;;;11.50;1.00;;;;;;5061358;28;20488;-64
2024/03/15 06:29:55;;;;;;;6.50;5.37;;;11.50;1.00;;;;;;5061538;28;20473;-64
2024/03/15 06:32:27;;;;;;;7.77;5.90;;;11.50;1.00;;;;;;5062078;28;21061;-64
2024/03/15 06:34:55;;;;;;;6.57;5.27;;;11.50;99.90;;;;;;5062613;28;20453;-64
2024/03/15 06:37:23;;;;;;;5.90;4.90;;;11.60;99.90;;;;;;5061618;28;20461;-63
2024/03/15 06:40:03;;;;;;;8.63;5.50;;;11.50;99.90;;;;;;5061634;28;20458;-63
2024/03/15 06:42:49;;;;;;;8.10;5.00;;;11.60;99.90;;;;;;5062677;28;20807;-63
2024/03/15 06:45:36;;;;;;;6.53;4.43;;;11.60;99.90;;;;;;5063623;28;20457;-63
2024/03/15 06:48:03;;;;;;;5.87;5.27;;;11.60;99.90;;;;;;5064008;28;20461;-62
2024/03/15 06:50:48;;;;;;;6.13;4.30;;;11.70;99.90;;;;;;5061520;28;20464;-62
2024/03/15 06:53:16;;;;;;;6.87;5.10;;;11.70;99.90;;;;;;5063887;28;20519;-63
2024/03/15 06:55:44;;;;;;;9.40;4.67;;;11.70;99.90;;;;;;5059972;28;20896;-63
2024/03/15 06:58:12;;;;;;;6.10;4.73;;;11.70;99.90;;;;;;5059883;28;20496;-62
2024/03/15 07:00:40;;;;;;;7.10;4.70;;;11.70;99.90;;;;;;5060887;28;20539;-62
2024/03/15 07:03:07;;;;;;;6.10;4.80;;;11.80;99.90;;;;;;5061107;28;20975;-62
2024/03/15 07:05:35;;;;;;;8.73;4.90;;;11.80;99.90;;;;;;5061343;28;20754;-62
2024/03/15 07:08:06;;;;;;;7.60;4.93;;;11.90;99.90;;;;;;5061168;28;20527;-62
2024/03/15 07:10:34;;;;;;;8.00;5.07;;;11.90;98.10;;;;;;5060792;28;20457;-62
2024/03/15 07:13:03;;;;;;;5.23;4.33;;;12.00;99.90;;;;;;5060725;28;20564;-61
2024/03/15 07:15:30;;;;;;;6.43;4.83;;;12.00;40.60;;;;;;5060660;28;20552;-62
2024/03/15 07:18:04;;;;;;;5.97;4.50;;;12.10;73.80;;;;;;5060805;28;20457;-62
2024/03/15 07:20:32;;;;;;;9.60;5.60;;;12.20;5.70;;;;;;5060958;28;20544;-62
2024/03/15 07:22:59;;;;;;;6.73;5.13;;;12.20;7.40;;;;;;5059236;28;20458;-62
2024/03/15 07:25:26;;;;;;;11.13;4.80;;;12.30;32.80;;;;;;5059188;28;20453;-62
2024/03/15 07:27:53;;;;;;;6.43;4.33;;;12.30;1.00;;;;;;5058702;28;20516;-62
2024/03/15 07:30:20;;;;;;;5.63;4.47;;;12.40;1.00;;;;;;5058837;28;20543;-63
2024/03/15 07:32:47;;;;;;;8.17;4.67;;;12.40;1.00;;;;;;5059180;28;20539;-62
2024/03/15 07:35:15;;;;;;;9.20;4.20;;;12.50;1.00;;;;;;5059514;28;20518;-62
2024/03/15 07:37:45;;;;;;;9.53;5.30;;;12.50;1.00;;;;;;5060374;28;20466;-61
2024/03/15 07:40:12;;;;;;;6.10;4.30;;;12.50;1.00;;;;;;5060630;28;20567;-63
2024/03/15 07:42:40;;;;;;;12.63;4.73;;;12.40;1.00;;;;;;5059751;28;20458;-62
2024/03/15 07:45:08;;;;;;;7.73;5.10;;;12.50;1.00;;;;;;5059712;28;20794;-62
2024/03/15 07:47:36;;;;;;;7.40;5.13;;;12.50;1.00;;;;;;5059889;28;20500;-62
2024/03/15 07:50:03;;;;;;;8.10;5.10;;;12.50;1.00;;;;;;5060097;28;20910;-62
2024/03/15 07:52:31;;;;;;;7.17;4.70;;;12.40;1.00;;;;;;5060431;28;20457;-62
2024/03/15 07:54:59;;;;;;;6.30;5.00;;;12.50;9.00;;;;;;5059717;28;20465;-63
2024/03/15 07:57:28;;;;;;;5.93;5.10;;;12.60;1.00;;;;;;5060305;28;20472;-62
2024/03/15 07:59:59;;;;;;;8.10;4.17;;;12.70;1.00;;;;;;5060439;28;20925;-62
2024/03/15 08:02:27;;;;;;;6.33;5.07;;;12.70;27.90;;;;;;5060844;28;20464;-62
2024/03/15 08:04:56;;;;;;;6.07;4.93;;;12.60;55.80;;;;;;5059571;28;20551;-62
2024/03/15 08:07:24;;;;;;;8.17;4.90;;;12.60;99.90;;;;;;5059473;28;20453;-61
2024/03/15 08:09:52;;;;;;;8.43;5.50;;;12.50;99.90;;;;;;5060542;28;20457;-67
2024/03/15 08:12:19;;;;;;;6.63;5.43;;;12.40;99.90;;;;;;5059844;28;20806;-65
2024/03/15 08:14:47;;;;;;;6.47;5.37;;;12.30;99.90;;;;;;5059332;28;20449;-63
2024/03/15 08:17:14;;;;;;;9.73;5.33;;;12.20;99.90;;;;;;5059449;28;20459;-66
2024/03/15 08:19:42;;;;;;;10.53;6.07;;;12.20;99.90;;;;;;5060261;28;20454;-66
2024/03/15 08:22:09;;;;;;;6.47;5.70;;;12.10;1.00;;;;;;5059205;28;20453;-66
2024/03/15 08:24:37;;;;;;;8.90;6.70;;;12.10;1.00;;;;;;5059152;28;20492;-63
2024/03/15 08:27:07;;;;;;;12.43;9.03;;;12.10;1.00;;;;;;5059235;28;20488;-63
2024/03/15 08:29:35;;;;;;;9.53;8.53;;;12.10;99.90;;;;;;5059680;28;20465;-64
2024/03/15 08:32:02;;;;;;;9.53;6.37;;;12.10;60.60;;;;;;5059051;28;20910;-63
2024/03/15 08:34:32;;;;;;;7.90;6.23;;;12.00;77.70;;;;;;5059692;28;20453;-63
2024/03/15 08:36:59;;;;;;;9.23;8.20;;;11.90;62.30;;;;;;5059346;28;20457;-64
2024/03/15 08:39:26;;;;;;;10.13;7.63;;;11.90;99.90;;;;;;5059263;28;20978;-65
2024/03/15 08:41:54;;;;;;;10.53;7.40;;;11.90;99.90;;;;;;5059382;28;20454;-64
2024/03/15 08:44:21;;;;;;;7.53;6.43;;;12.00;99.90;;;;;;5059530;28;20500;-65
2024/03/15 08:46:49;;;;;;;7.73;6.20;;;12.00;99.90;;;;;;5059225;28;20525;-65
2024/03/15 08:49:16;;;;;;;8.23;6.07;;;12.10;99.90;;;;;;5059314;28;20761;-63
2024/03/15 08:51:46;;;;;;;8.00;7.23;;;12.10;99.90;;;;;;5059230;28;20507;-63
2024/03/15 08:54:14;;;;;;;12.33;7.60;;;12.00;99.90;;;;;;5059740;28;20468;-64
2024/03/15 08:56:41;;;;;;;8.23;7.27;;;12.20;99.90;;;;;;5059581;28;20886;-64
2024/03/15 08:59:08;;;;;;;8.80;7.90;;;12.30;99.90;;;;;;5058888;28;20465;-64
2024/03/15 09:01:35;;;;;;;11.10;7.00;;;12.30;99.90;;;;;;5058637;28;20468;-65
2024/03/15 09:04:05;;;;;;;10.00;6.73;;;12.20;99.90;;;;;;5058446;28;20524;-65
2024/03/15 09:06:33;;;;;;;7.73;6.33;;;12.20;99.90;;;;;;5058314;28;20471;-65
2024/03/15 09:09:07;;;;;;;8.30;7.40;;;12.20;99.90;;;;;;5058649;28;20465;-66
2024/03/15 09:11:35;;;;;;;9.03;7.47;;;12.30;99.90;;;;;;5059808;28;20895;-66
2024/03/15 09:14:03;;;;;;;9.93;7.60;;;12.30;99.90;;;;;;5058976;28;20879;-66
2024/03/15 09:16:30;;;;;;;9.13;7.60;;;12.40;99.90;;;;;;5058390;28;20458;-66
2024/03/15 09:18:59;;;;;;;8.00;7.20;;;12.40;99.90;;;;;;5058653;28;20493;-67
2024/03/15 09:21:26;;;;;;;9.77;8.00;;;12.50;82.60;;;;;;5059173;28;20546;-66
2024/03/15 09:23:54;;;;;;;9.43;7.67;;;12.60;32.60;;;;;;5058691;28;20492;-66
2024/03/15 09:26:22;;;;;;;9.33;7.80;;;12.70;1.00;;;;;;5058556;28;20860;-65
2024/03/15 09:28:49;;;;;;;7.30;6.60;;;12.80;8.70;;;;;;5058644;28;20504;-66
2024/03/15 09:31:18;;;;;;;8.23;6.80;;;12.80;1.00;;;;;;5058644;28;20450;-65
2024/03/15 09:33:47;;;;;;;7.60;6.80;;;12.80;1.00;;;;;;5061615;28;20507;-65
2024/03/15 09:36:17;;;;;;;7.97;6.37;;;12.80;1.00;;;;;;5062977;28;20457;-66
2024/03/15 09:38:46;;;;;;;11.53;6.83;;;12.80;1.00;;;;;;5063131;28;20777;-65
2024/03/15 09:41:14;;;;;;;12.60;6.43;;;13.00;1.00;;;;;;5062347;28;20944;-63
2024/03/15 09:43:45;;;;;;;6.80;5.90;;;13.10;1.00;;;;;;5062274;28;20457;-65
2024/03/15 09:46:14;;;;;;;10.00;7.20;;;13.20;1.00;;;;;;5063191;28;20511;-65
2024/03/15 09:48:41;;;;;;;8.07;6.83;;;13.30;1.00;;;;;;5062291;28;20465;-64
2024/03/15 09:51:09;;;;;;;7.27;6.20;;;13.40;1.00;;;;;;5061923;28;20457;-64
2024/03/15 09:53:37;;;;;;;6.80;6.10;;;13.40;1.00;;;;;;5061436;28;20464;-65
2024/03/15 09:56:04;;;;;;;8.80;6.13;;;13.40;1.00;;;;;;5062185;28;20464;-63
2024/03/15 09:58:32;;;;;;;6.83;6.13;;;13.40;1.00;;;;;;5062682;28;20491;-63
2024/03/15 10:01:01;;;;;;;9.67;6.10;;;13.40;1.00;;;;;;5061287;28;20459;-63
2024/03/15 10:03:29;;;;;;;8.87;5.90;;;13.40;1.00;;;;;;5060631;28;20535;-62
2024/03/15 10:05:56;;;;;;;6.90;6.20;;;13.50;1.00;;;;;;5060732;28;20485;-63
2024/03/15 10:08:24;;;;;;;8.53;6.13;;;13.60;1.00;;;;;;5060638;28;20551;-62
2024/03/15 10:10:51;;;;;;;9.43;6.30;;;13.70;99.90;;;;;;5060566;28;20458;-62
2024/03/15 10:13:19;;;;;;;8.23;7.37;;;13.90;99.90;;;;;;5060828;28;20457;-63
2024/03/15 10:15:46;;;;;;;8.80;5.50;;;14.20;99.90;;;;;;5060536;28;20454;-62
2024/03/15 10:18:14;;;;;;;7.97;5.27;;;14.50;99.90;;;;;;5062109;28;20453;-62
2024/03/15 10:20:41;;;;;;;5.70;5.10;;;14.80;99.90;;;;;;5061927;28;20910;-62
2024/03/15 10:23:09;;;;;;;6.30;4.70;;;15.10;99.90;;;;;;5061539;28;20449;-62
2024/03/15 10:25:36;;;;;;;12.40;5.60;;;15.30;1.00;;;;;;5061890;28;20493;-62
2024/03/15 10:28:04;;;;;;;5.50;4.93;;;15.60;1.00;;;;;;5061502;28;20779;-62
2024/03/15 10:30:32;;;;;;;5.90;4.50;;;16.20;1.00;;;;;;5061907;28;20966;-62
2024/03/15 10:32:59;;;;;;;8.00;4.93;;;16.20;99.90;;;;;;5061930;28;20461;-62
2024/03/15 10:35:27;;;;;;;5.93;4.50;;;16.20;99.90;;;;;;5061965;28;20457;-62
2024/03/15 10:37:56;;;;;;;10.37;4.90;;;16.10;99.90;;;;;;5062197;28;20480;-63
2024/03/15 10:40:23;;;;;;;6.67;4.90;;;16.10;99.90;;;;;;5061919;28;20562;-63
2024/03/15 10:42:50;;;;;;;9.87;5.17;;;15.90;99.90;;;;;;5062073;28;20453;-62
2024/03/15 10:45:18;;;;;;;6.60;4.70;;;15.70;97.30;;;;;;5061614;28;20864;-63
2024/03/15 10:47:46;;;;;;;10.03;5.50;;;15.40;99.90;;;;;;5062156;28;20518;-63
2024/03/15 10:50:14;;;;;;;8.23;5.37;;;15.10;99.90;;;;;;5062291;28;20469;-62
2024/03/15 10:52:42;;;;;;;5.70;4.27;;;14.90;99.90;;;;;;5061880;28;20910;-63
2024/03/15 10:55:12;;;;;;;9.20;4.27;;;14.80;99.90;;;;;;5062112;28;20464;-62
2024/03/15 10:57:39;;;;;;;9.60;4.97;;;14.70;99.90;;;;;;5062366;28;20514;-63
2024/03/15 11:00:14;;;;;;;5.00;4.33;;;14.50;99.90;;;;;;5062742;28;20468;-63
2024/03/15 11:02:43;;;;;;;6.80;5.00;;;14.40;99.90;;;;;;5063450;28;20457;-62
2024/03/15 11:05:14;;;;;;;5.97;4.50;;;14.40;99.90;;;;;;5061961;28;20546;-62
2024/03/15 11:07:41;;;;;;;5.10;4.60;;;14.40;99.90;;;;;;5062294;28;20457;-62
2024/03/15 11:10:10;;;;;;;7.30;5.23;;;14.30;1.00;;;;;;5062105;28;20457;-62
2024/03/15 11:12:38;;;;;;;5.00;4.10;;;14.30;1.00;;;;;;5061996;28;20461;-62
2024/03/15 11:15:16;;;;;;;5.53;5.03;;;14.40;1.00;;;;;;5061446;28;20479;-61
2024/03/15 11:17:43;;;;;;;6.30;4.50;;;14.60;1.00;;;;;;5061256;28;20946;-62
2024/03/15 11:20:12;;;;;;;4.90;4.37;;;14.80;99.90;;;;;;5061415;28;20948;-62
2024/03/15 11:22:40;;;;;;;6.43;3.70;;;15.10;99.90;;;;;;5060944;28;20819;-62
2024/03/15 11:25:07;;;;;;;5.93;3.87;;;15.40;99.90;;;;;;5060297;28;20492;-62
2024/03/15 11:27:57;;;;;;;4.03;3.33;;;15.60;35.80;;;;;;5060567;28;20485;-62
2024/03/15 11:30:28;;;;;;;6.13;3.37;;;15.80;1.00;;;;;;5077332;28;20462;-62
2024/03/15 11:32:56;;;;;;;4.30;3.30;;;16.00;1.00;;;;;;5061047;28;20464;-62
2024/03/15 11:35:23;;;;;;;3.87;2.70;;;16.10;1.00;;;;;;5060898;28;20843;-62
2024/03/15 11:37:55;;;;;;;3.80;3.00;;;16.00;1.00;;;;;;5060624;28;20905;-63
2024/03/15 11:40:24;;;;;;;4.97;3.00;;;16.10;1.00;;;;;;5060095;28;20461;-63
2024/03/15 11:42:51;;;;;;;3.63;2.60;;;16.20;1.00;;;;;;5060291;28;20452;-63
2024/03/15 11:45:18;;;;;;;4.10;2.60;;;16.20;1.00;;;;;;5057025;28;20882;-63
2024/03/15 11:47:46;;;;;;;5.07;3.00;;;16.00;99.90;;;;;;5053190;28;20453;-63
2024/03/15 11:50:17;;;;;;;5.33;2.77;;;16.00;99.90;;;;;;5056524;28;20504;-63
2024/03/15 11:52:44;;;;;;;5.50;2.90;;;16.10;99.90;;;;;;5056412;28;20465;-63
2024/03/15 11:55:17;;;;;;;4.10;2.37;;;16.20;99.90;;;;;;5059263;28;20465;-63
2024/03/15 11:57:44;;;;;;;5.73;2.70;;;16.30;99.90;;;;;;5059420;28;20460;-64
2024/03/15 12:00:12;;;;;;;5.13;3.00;;;16.30;99.90;;;;;;5059680;28;20461;-64
2024/03/15 12:02:40;;;;;;;6.33;2.80;;;16.20;99.90;;;;;;5059867;28;20896;-63
2024/03/15 12:05:09;;;;;;;6.50;2.83;;;16.10;99.90;;;;;;5060082;28;20996;-63
2024/03/15 12:07:37;;;;;;;7.30;2.80;;;16.00;99.90;;;;;;5059279;28;20507;-63
2024/03/15 12:10:06;;;;;;;4.73;3.10;;;15.90;99.90;;;;;;5060201;28;20548;-61
2024/03/15 12:12:33;;;;;;;4.37;2.97;;;15.60;1.00;;;;;;5059041;28;20867;-61
2024/03/15 12:15:01;;;;;;;4.60;3.10;;;15.10;99.90;;;;;;5059810;28;20464;-62
2024/03/15 12:17:28;;;;;;;4.40;3.20;;;14.90;1.00;;;;;;5059312;28;20449;-64
2024/03/15 12:19:57;;;;;;;3.83;2.70;;;15.00;1.00;;;;;;5058515;28;20834;-62
2024/03/15 12:22:25;;;;;;;4.50;2.63;;;15.00;1.00;;;;;;5058614;28;20466;-63
2024/03/15 12:24:53;;;;;;;4.93;2.90;;;15.30;1.00;;;;;;5059926;28;20493;-62
2024/03/15 12:27:21;;;;;;;7.63;3.10;;;15.60;99.90;;;;;;5059097;28;20481;-62
2024/03/15 12:29:48;;;;;;;5.00;2.67;;;15.90;41.30;;;;;;5057642;28;20560;-62
2024/03/15 12:32:15;;;;;;;5.77;2.80;;;16.60;1.00;;;;;;5058109;28;20458;-62
2024/03/15 12:34:43;;;;;;;3.70;2.20;;;17.20;99.90;;;;;;5052236;28;20450;-62
2024/03/15 12:37:12;;;;;;;5.00;2.43;;;17.70;91.10;;;;;;5055439;28;20910;-62
2024/03/15 12:39:39;;;;;;;4.07;2.20;;;17.90;99.90;;;;;;5056646;28;20461;-61
2024/03/15 12:42:08;;;;;;;4.60;2.50;;;18.10;99.90;;;;;;5056644;28;20453;-60
2024/03/15 12:44:35;;;;;;;2.90;2.20;;;18.20;99.90;;;;;;5057184;28;20453;-61
2024/03/15 12:47:03;;;;;;;3.00;2.00;;;18.00;32.10;;;;;;5058098;28;20815;-62
2024/03/15 12:49:31;;;;;;;3.50;2.43;;;18.00;1.00;;;;;;5057595;28;20752;-61
2024/03/15 12:51:58;;;;;;;3.80;2.23;;;18.00;99.90;;;;;;5057432;28;20453;-61
2024/03/15 12:54:26;;;;;;;5.30;2.33;;;18.20;99.90;;;;;;5055842;28;20464;-61